createdAt,value
2022-10-23T00:00:55.028Z,14.45
2022-10-23T00:03:28.541Z,14.45
2022-10-23T00:06:04.869Z,14.44
2022-10-23T00:08:38.546Z,14.43
2022-10-23T00:11:12.190Z,14.56
2022-10-23T00:13:46.812Z,14.46
2022-10-23T00:16:21.685Z,14.44
2022-10-23T00:18:55.193Z,14.45
2022-10-23T00:21:28.991Z,14.44
2022-10-23T00:24:02.547Z,14.44
2022-10-23T00:26:35.880Z,14.59
2022-10-23T00:29:10.254Z,14.50
2022-10-23T00:31:45.147Z,14.50
2022-10-23T00:34:19.599Z,14.51
2022-10-23T00:36:53.017Z,14.50
2022-10-23T00:39:26.549Z,14.52
2022-10-23T00:42:00.023Z,14.53
2022-10-23T00:45:13.931Z,14.55
2022-10-23T00:47:49.180Z,14.54
2022-10-23T00:50:26.551Z,14.53
2022-10-23T00:53:03.464Z,14.53
2022-10-23T00:55:38.449Z,14.53
2022-10-23T00:58:12.396Z,14.53
2022-10-23T01:00:48.269Z,14.55
2022-10-23T01:03:26.780Z,14.57
2022-10-23T01:06:10.556Z,14.57
2022-10-23T01:08:53.686Z,14.58
2022-10-23T01:11:34.975Z,14.57
2022-10-23T01:14:25.724Z,14.60
2022-10-23T01:17:18.739Z,14.61
2022-10-23T01:20:12.505Z,14.63
2022-10-23T01:23:24.617Z,14.65
2022-10-23T01:26:12.274Z,14.61
2022-10-23T01:28:54.767Z,14.60
2022-10-23T01:31:35.100Z,14.61
2022-10-23T01:34:14.963Z,14.61
2022-10-23T01:36:53.729Z,14.62
2022-10-23T01:39:34.077Z,14.61
2022-10-23T01:42:14.289Z,14.61
2022-10-23T01:44:55.135Z,14.59
2022-10-23T01:47:32.570Z,14.58
2022-10-23T01:50:14.984Z,14.53
2022-10-23T01:52:51.899Z,14.51
2022-10-23T01:55:27.451Z,14.50
2022-10-23T01:58:04.011Z,14.46
2022-10-23T02:00:54.131Z,14.41
2022-10-23T02:03:30.513Z,14.47
2022-10-23T02:06:06.166Z,14.31
2022-10-23T02:08:42.700Z,14.21
2022-10-23T02:11:18.639Z,14.12
2022-10-23T02:13:59.256Z,14.06
2022-10-23T02:16:39.931Z,14.00
2022-10-23T02:19:22.649Z,13.93
2022-10-23T02:22:03.198Z,13.88
2022-10-23T02:24:44.044Z,13.86
2022-10-23T02:27:25.527Z,13.83
2022-10-23T02:30:12.957Z,13.85
2022-10-23T02:32:50.578Z,13.87
2022-10-23T02:35:27.717Z,13.89
2022-10-23T02:38:31.543Z,13.92
2022-10-23T02:41:47.521Z,13.95
2022-10-23T02:44:38.676Z,13.95
2022-10-23T02:47:22.837Z,13.95
2022-10-23T02:50:08.536Z,13.95
2022-10-23T02:52:54.974Z,13.97
2022-10-23T02:55:46.202Z,14.00
2022-10-23T02:58:28.025Z,13.99
2022-10-23T03:01:12.966Z,13.99
2022-10-23T03:03:49.956Z,13.96
2022-10-23T03:06:28.118Z,13.94
2022-10-23T03:09:13.839Z,13.90
2022-10-23T03:11:47.535Z,13.87
2022-10-23T03:14:21.149Z,13.84
2022-10-23T03:16:58.439Z,13.84
2022-10-23T03:19:32.669Z,13.83
2022-10-23T03:22:10.840Z,13.79
2022-10-23T03:24:44.509Z,13.79
2022-10-23T03:27:17.681Z,13.89
2022-10-23T03:29:51.120Z,13.76
2022-10-23T03:32:25.682Z,13.73
2022-10-23T03:34:59.090Z,13.72
2022-10-23T03:37:34.144Z,13.69
2022-10-23T03:40:09.548Z,13.70
2022-10-23T03:42:43.051Z,13.70
2022-10-23T03:45:19.718Z,13.71
2022-10-23T03:47:54.554Z,13.73
2022-10-23T03:50:27.993Z,13.76
2022-10-23T03:53:04.505Z,13.79
2022-10-23T03:55:40.412Z,13.79
2022-10-23T03:58:13.932Z,13.80
2022-10-23T04:00:47.427Z,13.81
2022-10-23T04:03:20.927Z,13.81
2022-10-23T04:05:54.358Z,13.82
2022-10-23T04:08:33.305Z,13.85
2022-10-23T04:11:09.240Z,13.87
2022-10-23T04:13:50.954Z,13.89
2022-10-23T04:16:25.353Z,13.92
2022-10-23T04:19:01.427Z,13.93
2022-10-23T04:21:43.475Z,13.95
2022-10-23T04:24:20.047Z,13.94
2022-10-23T04:26:53.649Z,13.94
2022-10-23T04:29:29.559Z,13.93
2022-10-23T04:32:03.682Z,13.94
2022-10-23T04:34:37.193Z,13.95
2022-10-23T04:37:10.594Z,14.07
2022-10-23T04:39:46.351Z,13.98
2022-10-23T04:42:20.993Z,13.97
2022-10-23T04:44:54.274Z,14.11
2022-10-23T04:47:27.780Z,14.01
2022-10-23T04:50:05.078Z,14.00
2022-10-23T04:52:57.774Z,14.01
2022-10-23T04:55:32.735Z,13.98
2022-10-23T04:58:22.292Z,13.97
2022-10-23T05:00:57.844Z,13.97
2022-10-23T05:03:32.814Z,13.97
2022-10-23T05:06:07.067Z,13.98
2022-10-23T05:08:49.678Z,13.97
2022-10-23T05:11:27.656Z,14.01
2022-10-23T05:14:01.310Z,14.03
2022-10-23T05:16:41.048Z,14.08
2022-10-23T05:19:24.443Z,14.09
2022-10-23T05:21:59.061Z,14.10
2022-10-23T05:24:38.163Z,14.10
2022-10-23T05:27:13.092Z,14.12
2022-10-23T05:29:48.096Z,14.13
2022-10-23T05:32:27.407Z,14.15
2022-10-23T05:35:02.947Z,14.19
2022-10-23T05:37:39.769Z,14.21
2022-10-23T05:40:19.027Z,14.22
2022-10-23T05:42:54.758Z,14.25
2022-10-23T05:45:38.079Z,14.26
2022-10-23T05:48:34.809Z,14.26
2022-10-23T05:51:27.504Z,14.27
2022-10-23T05:54:21.183Z,14.30
2022-10-23T05:57:02.895Z,14.31
2022-10-23T05:59:42.808Z,14.32
2022-10-23T06:02:28.764Z,14.35
2022-10-23T06:05:14.078Z,14.36
2022-10-23T06:08:08.800Z,14.36
2022-10-23T06:10:43.286Z,14.37
2022-10-23T06:13:18.300Z,14.39
2022-10-23T06:15:53.126Z,14.52
2022-10-23T06:18:29.189Z,14.43
2022-10-23T06:21:08.367Z,14.44
2022-10-23T06:23:43.325Z,14.44
2022-10-23T06:26:22.646Z,14.45
2022-10-23T06:29:06.930Z,14.45
2022-10-23T06:31:41.600Z,14.58
2022-10-23T06:34:15.551Z,14.52
2022-10-23T06:36:49.044Z,14.53
2022-10-23T06:39:41.931Z,14.57
2022-10-23T06:42:21.539Z,14.61
2022-10-23T06:45:04.763Z,14.65
2022-10-23T06:47:48.273Z,14.70
2022-10-23T06:50:42.713Z,14.75
2022-10-23T06:53:24.874Z,14.80
2022-10-23T06:56:09.368Z,14.82
2022-10-23T06:58:43.975Z,14.87
2022-10-23T07:01:21.338Z,14.91
2022-10-23T07:03:56.443Z,14.97
2022-10-23T07:06:32.816Z,15.12
2022-10-23T07:09:06.316Z,15.37
2022-10-23T07:12:00.633Z,15.35
2022-10-23T07:14:43.649Z,15.41
2022-10-23T07:17:17.473Z,15.50
2022-10-23T07:19:52.684Z,15.66
2022-10-23T07:22:26.457Z,15.84
2022-10-23T07:25:14.029Z,16.03
2022-10-23T07:27:47.403Z,16.29
2022-10-23T07:30:21.086Z,16.45
2022-10-23T07:33:00.941Z,16.73
2022-10-23T07:36:02.245Z,17.20
2022-10-23T07:38:36.588Z,17.45
2022-10-23T07:41:12.712Z,17.47
2022-10-23T07:43:46.461Z,17.46
2022-10-23T07:46:20.799Z,17.36
2022-10-23T07:48:54.857Z,17.19
2022-10-23T07:51:29.937Z,17.02
2022-10-23T07:54:06.736Z,16.88
2022-10-23T07:57:15.033Z,16.73
2022-10-23T08:00:01.676Z,16.61
2022-10-23T08:02:36.626Z,16.51
2022-10-23T08:05:10.752Z,16.43
2022-10-23T08:07:54.711Z,16.34
2022-10-23T08:10:29.204Z,16.33
2022-10-23T08:13:03.045Z,16.32
2022-10-23T08:16:09.740Z,16.26
2022-10-23T08:19:02.611Z,16.23
2022-10-23T08:21:36.553Z,16.21
2022-10-23T08:24:14.119Z,16.24
2022-10-23T08:26:51.241Z,16.27
2022-10-23T08:29:28.332Z,16.26
2022-10-23T08:32:01.607Z,16.34
2022-10-23T08:34:45.082Z,16.27
2022-10-23T08:37:18.461Z,16.34
2022-10-23T08:39:55.008Z,16.25
2022-10-23T08:42:59.117Z,16.34
2022-10-23T08:45:37.880Z,16.36
2022-10-23T08:48:25.278Z,16.38
2022-10-23T08:51:23.317Z,16.35
2022-10-23T08:54:04.423Z,16.33
2022-10-23T08:56:42.477Z,16.36
2022-10-23T08:59:26.444Z,16.43
2022-10-23T09:02:04.063Z,16.48
2022-10-23T09:04:40.722Z,16.67
2022-10-23T09:07:26.749Z,17.31
2022-10-23T09:10:13.558Z,17.51
2022-10-23T09:12:48.743Z,17.42
2022-10-23T09:15:29.612Z,17.38
2022-10-23T09:18:12.706Z,17.36
2022-10-23T09:20:47.789Z,17.29
2022-10-23T09:23:23.475Z,17.19
2022-10-23T09:25:57.263Z,17.15
2022-10-23T09:28:33.912Z,17.06
2022-10-23T09:31:09.082Z,16.97
2022-10-23T09:33:42.890Z,16.88
2022-10-23T09:36:23.615Z,16.79
2022-10-23T09:38:59.799Z,16.71
2022-10-23T09:41:38.567Z,16.63
2022-10-23T09:44:21.224Z,16.60
2022-10-23T09:46:57.118Z,16.55
2022-10-23T09:49:32.554Z,16.53
2022-10-23T09:52:23.411Z,16.51
2022-10-23T09:54:59.770Z,16.49
2022-10-23T09:57:38.472Z,16.46
2022-10-23T10:00:22.262Z,16.44
2022-10-23T10:03:03.169Z,16.44
2022-10-23T10:06:22.523Z,16.45
2022-10-23T10:09:02.204Z,16.46
2022-10-23T10:11:42.871Z,16.53
2022-10-23T10:15:00.402Z,16.64
2022-10-23T10:17:45.186Z,16.64
2022-10-23T10:20:50.819Z,16.66
2022-10-23T10:23:34.749Z,16.63
2022-10-23T10:26:26.778Z,16.61
2022-10-23T10:29:14.947Z,16.56
2022-10-23T10:32:00.562Z,16.53
2022-10-23T10:34:52.883Z,16.51
2022-10-23T10:37:32.828Z,16.50
2022-10-23T10:40:15.633Z,16.50
2022-10-23T10:43:14.703Z,16.49
2022-10-23T10:45:56.164Z,16.47
2022-10-23T10:48:45.160Z,16.52
2022-10-23T10:51:31.902Z,16.56
2022-10-23T10:54:17.988Z,16.67
2022-10-23T10:56:55.804Z,16.85
2022-10-23T10:59:33.076Z,17.08
2022-10-23T11:02:21.128Z,17.36
2022-10-23T11:05:02.201Z,18.00
2022-10-23T11:07:43.753Z,18.33
2022-10-23T11:10:19.560Z,18.46
2022-10-23T11:12:55.056Z,19.58
2022-10-23T11:15:37.733Z,20.91
2022-10-23T11:18:22.195Z,22.80
2022-10-23T11:21:27.850Z,24.22
2022-10-23T11:24:49.080Z,24.18
2022-10-23T11:27:41.469Z,24.30
2022-10-23T11:30:30.094Z,24.00
2022-10-23T11:33:46.785Z,23.57
2022-10-23T11:36:41.307Z,22.82
2022-10-23T11:39:21.328Z,22.03
2022-10-23T11:41:58.513Z,21.34
2022-10-23T11:44:44.179Z,20.66
2022-10-23T11:47:39.657Z,20.13
2022-10-23T11:50:25.059Z,19.74
2022-10-23T11:53:24.411Z,19.38
2022-10-23T11:56:04.459Z,19.02
2022-10-23T11:58:48.505Z,18.79
2022-10-23T12:01:32.491Z,18.57
2022-10-23T12:04:22.423Z,18.36
2022-10-23T12:07:04.205Z,18.17
2022-10-23T12:09:42.347Z,18.03
2022-10-23T12:12:25.359Z,17.90
2022-10-23T12:15:20.201Z,17.75
2022-10-23T12:17:58.811Z,17.55
2022-10-23T12:20:53.146Z,17.37
2022-10-23T12:24:01.725Z,17.25
2022-10-23T12:26:50.936Z,17.09
2022-10-23T12:29:42.204Z,16.98
2022-10-23T12:32:34.603Z,16.92
2022-10-23T12:35:26.005Z,16.83
2022-10-23T12:38:13.870Z,16.76
2022-10-23T12:40:54.148Z,16.69
2022-10-23T12:43:30.423Z,16.63
2022-10-23T12:46:26.495Z,16.62
2022-10-23T12:49:05.156Z,16.59
2022-10-23T12:51:38.683Z,16.58
2022-10-23T12:54:17.497Z,16.68
2022-10-23T12:56:55.426Z,16.63
2022-10-23T12:59:34.779Z,16.67
2022-10-23T13:02:15.705Z,16.71
2022-10-23T13:04:52.264Z,16.75
2022-10-23T13:07:32.732Z,16.80
2022-10-23T13:10:15.360Z,17.11
2022-10-23T13:12:59.840Z,17.55
2022-10-23T13:15:39.991Z,18.02
2022-10-23T13:18:15.621Z,18.28
2022-10-23T13:23:35.393Z,18.72
2022-10-23T13:26:28.685Z,18.76
2022-10-23T13:29:07.516Z,18.80
2022-10-23T13:31:43.325Z,18.69
2022-10-23T13:34:25.186Z,18.52
2022-10-23T13:37:04.431Z,18.37
2022-10-23T13:39:37.939Z,18.24
2022-10-23T13:42:14.922Z,18.09
2022-10-23T13:44:51.912Z,18.00
2022-10-23T13:47:25.433Z,17.97
2022-10-23T13:49:58.513Z,18.11
2022-10-23T13:52:33.380Z,17.98
2022-10-23T13:55:18.774Z,17.97
2022-10-23T13:57:52.365Z,18.00
2022-10-23T14:00:25.500Z,18.10
2022-10-23T14:02:59.070Z,17.97
2022-10-23T14:05:32.220Z,18.04
2022-10-23T14:08:07.641Z,17.92
2022-10-23T14:10:41.071Z,17.95
2022-10-23T14:13:14.762Z,17.99
2022-10-23T14:15:54.884Z,18.00
2022-10-23T14:18:30.715Z,17.97
2022-10-23T14:21:05.985Z,17.97
2022-10-23T14:23:42.617Z,17.93
2022-10-23T14:26:19.980Z,17.89
2022-10-23T14:29:02.305Z,17.81
2022-10-23T14:31:50.353Z,17.73
2022-10-23T14:34:27.725Z,17.68
2022-10-23T14:37:09.257Z,17.67
2022-10-23T14:39:50.654Z,17.65
2022-10-23T14:42:24.628Z,17.65
2022-10-23T14:45:03.539Z,17.64
2022-10-23T14:47:37.213Z,17.64
2022-10-23T14:50:20.476Z,17.61
2022-10-23T14:52:54.755Z,17.61
2022-10-23T14:55:35.906Z,17.60
2022-10-23T14:58:09.941Z,17.57
2022-10-23T15:00:43.612Z,17.51
2022-10-23T15:03:23.004Z,17.42
2022-10-23T15:05:57.338Z,17.33
2022-10-23T15:08:34.344Z,17.21
2022-10-23T15:11:12.646Z,17.07
2022-10-23T15:13:46.401Z,16.97
2022-10-23T15:16:25.341Z,16.85
2022-10-23T15:18:59.424Z,16.70
2022-10-23T15:21:33.139Z,16.58
2022-10-23T15:24:06.530Z,16.57
2022-10-23T15:26:43.393Z,16.37
2022-10-23T15:29:17.827Z,16.25
2022-10-23T15:31:55.236Z,16.12
2022-10-23T15:34:30.605Z,16.00
2022-10-23T15:37:12.478Z,15.89
2022-10-23T15:39:46.471Z,15.78
2022-10-23T15:42:21.486Z,15.68
2022-10-23T15:44:57.857Z,15.61
2022-10-23T15:47:31.542Z,15.53
2022-10-23T15:50:05.702Z,15.44
2022-10-23T15:52:41.552Z,15.38
2022-10-23T15:55:15.421Z,15.31
2022-10-23T15:57:50.070Z,15.36
2022-10-23T16:00:23.755Z,15.18
2022-10-23T16:03:06.220Z,15.11
2022-10-23T16:05:45.612Z,15.03
2022-10-23T16:08:19.406Z,14.98
2022-10-23T16:10:53.522Z,14.95
2022-10-23T16:13:29.007Z,14.93
2022-10-23T16:16:05.528Z,14.94
2022-10-23T16:18:39.653Z,14.95
2022-10-23T16:21:19.973Z,14.95
2022-10-23T16:23:58.591Z,14.97
2022-10-23T16:26:32.458Z,14.99
2022-10-23T16:29:09.795Z,15.01
2022-10-23T16:31:43.827Z,15.01
2022-10-23T16:34:17.956Z,15.01
2022-10-23T16:36:51.651Z,15.00
2022-10-23T16:39:44.944Z,14.99
2022-10-23T16:42:58.514Z,14.95
2022-10-23T16:45:40.210Z,14.93
2022-10-23T16:48:13.700Z,14.93
2022-10-23T16:50:47.130Z,14.91
2022-10-23T16:53:23.294Z,14.91
2022-10-23T16:56:01.053Z,14.89
2022-10-23T16:58:35.442Z,14.89
2022-10-23T17:01:12.625Z,14.87
2022-10-23T17:03:48.468Z,14.86
2022-10-23T17:06:23.706Z,14.85
2022-10-23T17:08:58.189Z,14.85
2022-10-23T17:11:58.702Z,14.84
2022-10-23T17:17:46.991Z,14.84
2022-10-23T17:20:23.353Z,14.82
2022-10-23T17:22:58.137Z,14.82
2022-10-23T17:25:34.285Z,14.82
2022-10-23T17:28:11.367Z,14.82
2022-10-23T17:30:47.844Z,14.80
2022-10-23T17:33:28.409Z,14.80
2022-10-23T17:36:07.004Z,14.75
2022-10-23T17:38:41.834Z,14.71
2022-10-23T17:41:21.549Z,14.71
2022-10-23T17:44:00.255Z,14.68
2022-10-23T17:46:34.045Z,14.65
2022-10-23T17:49:12.661Z,14.59
2022-10-23T17:51:46.438Z,14.54
2022-10-23T17:54:19.799Z,14.61
2022-10-23T17:56:57.546Z,14.46
2022-10-23T17:59:35.437Z,14.40
2022-10-23T18:02:09.898Z,14.34
2022-10-23T18:04:45.259Z,14.29
2022-10-23T18:07:20.192Z,14.26
2022-10-23T18:10:06.027Z,14.26
2022-10-23T18:12:42.384Z,14.20
2022-10-23T18:15:16.924Z,14.16
2022-10-23T18:17:50.454Z,14.12
2022-10-23T18:20:29.139Z,14.07
2022-10-23T18:23:05.301Z,14.03
2022-10-23T18:25:46.139Z,14.00
2022-10-23T18:28:22.032Z,13.96
2022-10-23T18:30:57.187Z,13.93
2022-10-23T18:33:31.099Z,13.88
2022-10-23T18:36:14.229Z,13.87
2022-10-23T18:38:48.723Z,13.81
2022-10-23T18:41:28.306Z,13.78
2022-10-23T18:44:02.014Z,13.73
2022-10-23T18:46:35.857Z,13.68
2022-10-23T18:49:09.485Z,13.63
2022-10-23T18:51:44.610Z,13.61
2022-10-23T18:54:21.196Z,13.59
2022-10-23T18:56:54.827Z,13.55
2022-10-23T18:59:28.095Z,13.64
2022-10-23T19:02:01.958Z,13.53
2022-10-23T19:04:36.519Z,13.49
2022-10-23T19:07:22.253Z,13.44
2022-10-23T19:09:57.042Z,13.41
2022-10-23T19:12:30.645Z,13.38
2022-10-23T19:15:04.350Z,13.36
2022-10-23T19:17:40.046Z,13.45
2022-10-23T19:20:20.251Z,13.32
2022-10-23T19:22:56.860Z,13.26
2022-10-23T19:25:34.173Z,13.22
2022-10-23T19:28:07.723Z,13.20
2022-10-23T19:30:47.080Z,13.20
2022-10-23T19:33:24.738Z,13.14
2022-10-23T19:36:01.220Z,13.13
2022-10-23T19:38:40.456Z,13.10
2022-10-23T19:41:18.502Z,13.07
2022-10-23T19:43:51.926Z,13.03
2022-10-23T19:46:26.165Z,13.00
2022-10-23T19:48:59.656Z,12.96
2022-10-23T19:51:33.514Z,12.93
2022-10-23T19:54:09.948Z,12.89
2022-10-23T19:56:43.429Z,12.85
2022-10-23T19:59:17.028Z,12.82
2022-10-23T20:01:50.827Z,12.79
2022-10-23T20:04:24.413Z,12.75
2022-10-23T20:07:01.011Z,12.71
2022-10-23T20:09:36.170Z,12.65
2022-10-23T20:12:09.909Z,12.62
2022-10-23T20:14:43.000Z,12.69
2022-10-23T20:17:19.031Z,12.54
2022-10-23T20:19:53.470Z,12.49
2022-10-23T20:22:28.391Z,12.46
2022-10-23T20:25:06.345Z,12.45
2022-10-23T20:27:42.883Z,12.43
2022-10-23T20:30:18.977Z,12.41
2022-10-23T20:32:52.470Z,12.38
2022-10-23T20:35:25.902Z,12.36
2022-10-23T20:37:59.398Z,12.33
2022-10-23T20:40:34.311Z,12.30
2022-10-23T20:43:07.799Z,12.28
2022-10-23T20:45:41.299Z,12.27
2022-10-23T20:48:14.697Z,12.26
2022-10-23T20:50:48.124Z,12.25
2022-10-23T20:53:21.538Z,12.24
2022-10-23T20:55:56.486Z,12.22
2022-10-23T20:58:29.942Z,12.21
2022-10-23T21:01:04.992Z,12.20
2022-10-23T21:03:38.921Z,12.19
2022-10-23T21:06:14.541Z,12.19
2022-10-23T21:08:48.480Z,12.20
2022-10-23T21:11:23.409Z,12.20
2022-10-23T21:13:59.983Z,12.20
2022-10-23T21:16:35.638Z,12.21
2022-10-23T21:19:10.247Z,12.20
2022-10-23T21:21:43.913Z,12.20
2022-10-23T21:24:17.775Z,12.33
2022-10-23T21:26:52.653Z,12.23
2022-10-23T21:29:28.829Z,12.21
2022-10-23T21:32:02.742Z,12.16
2022-10-23T21:34:36.653Z,12.14
2022-10-23T21:37:14.531Z,12.12
2022-10-23T21:39:48.420Z,12.09
2022-10-23T21:42:23.509Z,12.08
2022-10-23T21:44:57.015Z,12.05
2022-10-23T21:47:30.429Z,12.04
2022-10-23T21:50:04.099Z,12.02
2022-10-23T21:52:37.606Z,12.13
2022-10-23T21:55:11.933Z,12.02
2022-10-23T21:57:46.972Z,11.99
2022-10-23T22:00:20.529Z,12.01
2022-10-23T22:02:56.839Z,12.00
2022-10-23T22:05:30.253Z,12.02
2022-10-23T22:08:03.677Z,12.02
2022-10-23T22:10:37.164Z,12.02
2022-10-23T22:13:12.025Z,12.02
2022-10-23T22:18:24.330Z,12.02
2022-10-23T22:21:04.338Z,12.02
2022-10-23T22:23:38.368Z,12.04
2022-10-23T22:26:23.245Z,12.06
2022-10-23T22:29:00.243Z,12.07
2022-10-23T22:31:35.073Z,12.07
2022-10-23T22:34:25.118Z,12.07
2022-10-23T22:37:02.821Z,12.07
2022-10-23T22:40:04.880Z,12.09
2022-10-23T22:42:41.189Z,12.10
2022-10-23T22:45:15.996Z,12.23
2022-10-23T22:47:49.568Z,12.13
2022-10-23T22:50:26.008Z,12.12
2022-10-23T22:52:59.498Z,12.11
2022-10-23T22:55:33.063Z,12.10
2022-10-23T22:58:09.676Z,12.08
2022-10-23T23:00:45.000Z,12.08
2022-10-23T23:03:18.777Z,12.06
2022-10-23T23:05:52.033Z,12.14
2022-10-23T23:08:25.970Z,12.03
2022-10-23T23:11:02.129Z,12.00
2022-10-23T23:13:36.296Z,11.98
2022-10-23T23:16:20.403Z,11.98
2022-10-23T23:18:53.823Z,12.09
2022-10-23T23:21:30.505Z,11.99
2022-10-23T23:24:06.578Z,12.00
2022-10-23T23:26:40.064Z,12.00
2022-10-23T23:29:14.168Z,12.01
2022-10-23T23:31:49.160Z,12.01
2022-10-23T23:34:22.857Z,12.01
2022-10-23T23:36:56.449Z,11.99
2022-10-23T23:39:30.133Z,11.98
2022-10-23T23:42:06.173Z,11.98
2022-10-23T23:44:50.212Z,11.96
2022-10-23T23:47:35.187Z,11.93
2022-10-23T23:50:11.523Z,11.93
2022-10-23T23:52:48.408Z,11.90
2022-10-23T23:55:21.991Z,11.88
2022-10-23T23:58:05.697Z,11.87
